Data for 01/24/2014

Time Sea-Level Adjusted Pressure Absolute Pressure Temperature Relative Humidity Dew Point   
(mb) (inHg) (mb) (inHg) (C) (F) (%) (C) (F)
00:05 1029 30.39 858 25.34 -1.9 28.5 62 -8.3 17.1
00:10 1029 30.39 858 25.34 -1.7 28.9 63 -7.9 17.8
00:15 1029 30.39 858 25.34 -1.9 28.6 66 -7.5 18.6
00:20 1029 30.39 858 25.34 -2.1 28.2 65 -7.8 17.9
00:25 1029 30.39 858 25.34 -2.1 28.2 66 -7.6 18.3
00:30 1029 30.39 858 25.34 -2 28.4 65 -7.7 18.1
00:35 1029 30.39 858 25.34 -1.8 28.7 64 -7.8 18
00:40 1029 30.39 858 25.34 -1.8 28.7 65 -7.5 18.5
00:45 1029 30.39 859 25.37 -1.8 28.7 65 -7.5 18.4
00:50 1029 30.39 859 25.37 -1.7 29 65 -7.3 18.8
00:55 1029 30.39 859 25.37 -1.4 29.4 64 -7.4 18.7
01:00 1029 30.39 859 25.37 -1.3 29.7 64 -7.2 19
01:05 1029 30.39 859 25.37 -1.5 29.3 64 -7.4 18.7
01:10 1029 30.39 858 25.34 -1.4 29.5 66 -7 19.3
01:15 1029 30.39 858 25.34 -1.4 29.4 64 -7.4 18.6
01:20 1029 30.39 858 25.34 -1.2 29.8 64 -7.2 19
01:25 1029 30.39 858 25.34 -1.1 30 63 -7.3 18.9
01:30 1029 30.39 858 25.34 -0.9 30.4 61 -7.5 18.5
01:35 1029 30.39 858 25.34 -0.9 30.4 64 -6.8 19.8
01:40 1029 30.39 858 25.34 -1.3 29.7 65 -6.9 19.5
01:45 1029 30.39 858 25.34 -1.4 29.5 66 -7 19.4
01:50 1029 30.39 858 25.34 -1.2 29.8 64 -7.1 19.2
01:55 1029 30.39 858 25.34 -1.2 29.8 64 -7.2 19.1
02:00 1029 30.39 858 25.34 -1.1 30.1 64 -7 19.3
02:05 1029 30.39 858 25.34 -1.1 30 64 -7 19.4
02:10 1029 30.39 858 25.34 -1.1 30 65 -6.9 19.6
02:15 1029 30.39 858 25.34 -1.2 29.9 66 -6.7 19.9
02:20 1029 30.39 858 25.34 -1.3 29.7 66 -6.9 19.6
02:25 1029 30.39 858 25.34 -1.3 29.7 65 -7.1 19.3
02:30 1029 30.39 858 25.34 -1.1 30 64 -7 19.4
02:35 1029 30.39 858 25.34 -1.2 29.9 65 -7 19.5
02:40 1029 30.39 858 25.34 -1.3 29.7 65 -7 19.4
02:45 1029 30.39 858 25.34 -1.3 29.6 64 -7.2 19
02:50 1029 30.39 858 25.34 -1.1 30 64 -7.1 19.2
02:55 1029 30.39 858 25.34 -1.1 30.1 63 -7.3 18.9
03:00 1029 30.39 858 25.34 -1.2 29.8 66 -6.8 19.8
03:05 1029 30.39 858 25.34 -1.6 29.2 67 -7 19.4
03:10 1029 30.39 858 25.34 -1.7 28.9 67 -7 19.4
03:15 1029 30.39 858 25.34 -1.6 29.1 67 -7 19.4
03:20 1029 30.39 858 25.34 -1.5 29.3 69 -6.6 20.2
03:25 1029 30.39 858 25.34 -1.8 28.8 69 -6.7 19.9
03:30 1029 30.39 859 25.37 -2.1 28.1 71 -6.7 19.9
03:35 1029 30.39 858 25.34 -2.2 28.1 68 -7.3 18.8
03:40 1029 30.39 858 25.34 -2.2 28.1 68 -7.3 18.9
03:45 1029 30.39 858 25.34 -2.2 28 68 -7.3 18.8
03:50 1029 30.39 859 25.37 -2.3 27.9 67 -7.5 18.5
03:55 1029 30.39 859 25.37 -2.3 27.8 69 -7.2 19
04:00 1029 30.39 859 25.37 -2.4 27.6 70 -7.2 19.1
04:05 1029 30.39 859 25.37 -2.5 27.5 70 -7.2 19.1
04:10 1029 30.39 859 25.37 -2.5 27.5 70 -7.2 19
04:15 1029 30.39 859 25.37 -2.5 27.4 71 -7.1 19.2
04:20 1029 30.39 859 25.37 -2.7 27.2 71 -7.2 19.1
04:25 1029 30.39 859 25.37 -2.7 27.1 69 -7.7 18.2
04:30 1029 30.39 859 25.37 -2.9 26.9 69 -7.8 18
04:35 1029 30.39 859 25.37 -2.8 26.9 70 -7.5 18.5
04:40 1029 30.39 859 25.37 -2.8 27 69 -7.6 18.3
04:45 1029 30.39 859 25.37 -2.8 27 69 -7.7 18.1
04:50 1029 30.39 859 25.37 -2.7 27.1 68 -7.8 17.9
04:55 1029 30.39 859 25.37 -2.8 27 69 -7.6 18.2
05:00 1029 30.39 859 25.37 -2.9 26.8 70 -7.7 18.1
05:05 1029 30.39 859 25.37 -3 26.6 70 -7.8 18
05:10 1029 30.39 859 25.37 -2.9 26.7 68 -7.9 17.7
05:15 1029 30.39 858 25.34 -2.9 26.7 69 -7.9 17.7
05:20 1029 30.39 858 25.34 -3 26.7 68 -8 17.6
05:25 1029 30.39 858 25.34 -3 26.6 68 -8 17.6
05:30 1029 30.39 858 25.34 -3 26.6 68 -8.2 17.2
05:35 1029 30.39 858 25.34 -2.8 26.9 67 -8.1 17.5
05:40 1029 30.39 858 25.34 -2.8 26.9 68 -8 17.7
05:45 1029 30.39 858 25.34 -2.9 26.7 70 -7.6 18.3
05:50 1029 30.39 858 25.34 -2.9 26.8 69 -7.7 18.1
05:55 1029 30.39 858 25.34 -2.8 26.9 70 -7.6 18.3
06:00 1029 30.39 858 25.34 -2.8 27 69 -7.7 18.2
06:05 1029 30.39 858 25.34 -2.8 27 69 -7.8 18
06:10 1029 30.39 858 25.34 -2.8 26.9 69 -7.8 17.9
06:15 1029 30.39 858 25.34 -3 26.6 70 -7.7 18.1
06:20 1029 30.39 858 25.34 -3.1 26.3 71 -7.7 18.1
06:25 1029 30.39 858 25.34 -3 26.6 69 -7.8 18
06:30 1029 30.39 858 25.34 -2.7 27.1 69 -7.6 18.3
06:35 1029 30.39 858 25.34 -2.7 27.2 70 -7.3 18.8
06:40 1029 30.39 858 25.34 -2.7 27.2 70 -7.5 18.6
06:45 1029 30.39 858 25.34 -2.4 27.6 69 -7.4 18.6
06:50 1029 30.39 858 25.34 -2.5 27.5 69 -7.4 18.6
06:55 1029 30.39 858 25.34 -2.8 27 71 -7.4 18.8
07:00 1029 30.39 858 25.34 -3.2 26.2 73 -7.4 18.6
07:05 1029 30.39 858 25.34 -3.3 26 71 -7.9 17.9
07:10 1029 30.39 858 25.34 -3.2 26.2 71 -7.8 18
07:15 1029 30.39 858 25.34 -3.1 26.4 70 -7.9 17.9
07:20 1029 30.39 858 25.34 -3.2 26.2 71 -7.8 18
07:25 1029 30.39 858 25.34 -3.1 26.5 68 -8.1 17.4
07:30 1029 30.39 858 25.34 -2.8 26.9 67 -8.1 17.5
07:35 1029 30.39 858 25.34 -3 26.7 69 -7.9 17.8
07:40 1029 30.39 858 25.34 -2.9 26.7 67 -8.2 17.3
07:45 1029 30.39 858 25.34 -2.8 27 67 -8 17.5
07:50 1029 30.39 858 25.34 -3.1 26.4 68 -8.2 17.2
07:55 1029 30.39 858 25.34 -3.1 26.4 66 -8.6 16.6
08:00 1029 30.39 858 25.34 -3 26.6 66 -8.5 16.6
08:05 1029 30.39 858 25.34 -2.9 26.8 65 -8.5 16.6
08:10 1029 30.39 858 25.34 -3 26.5 67 -8.4 16.9
08:15 1029 30.39 858 25.34 -3.2 26.2 68 -8.4 16.9
08:20 1029 30.39 858 25.34 -3.2 26.3 66 -8.6 16.5
08:25 1029 30.39 858 25.34 -2.7 27.1 65 -8.4 16.9
08:30 1029 30.39 858 25.34 -2.2 28.1 63 -8.2 17.2
08:35 1029 30.39 858 25.34 -1.8 28.7 62 -8.2 17.3
08:40 1029 30.39 858 25.34 -1.9 28.5 62 -8.2 17.3
08:45 1029 30.39 858 25.34 -2.4 27.7 64 -8.3 17.1
08:50 1029 30.39 858 25.34 -2.8 27 65 -8.5 16.8
08:55 1029 30.39 858 25.34 -3.1 26.5 66 -8.5 16.8
09:00 1029 30.39 858 25.34 -3.4 26 68 -8.5 16.7
09:05 1029 30.39 858 25.34 -3.6 25.5 69 -8.6 16.6
09:10 1029 30.39 858 25.34 -3.9 25 70 -8.6 16.6
09:15 1029 30.39 858 25.34 -3.9 24.9 70 -8.6 16.6
09:20 1029 30.39 858 25.34 -3.8 25.2 69 -8.6 16.5
09:25 1029 30.39 858 25.34 -3.5 25.6 69 -8.4 16.9
09:30 1029 30.39 858 25.34 -3.6 25.5 69 -8.5 16.7
09:35 1029 30.39 858 25.34 -3.6 25.6 69 -8.4 16.9
09:40 1029 30.39 858 25.34 -3.9 25.1 71 -8.4 16.9
09:45 1029 30.39 858 25.34 -3.8 25.2 69 -8.6 16.5
09:50 1029 30.39 858 25.34 -3.4 25.8 68 -8.5 16.6
09:55 1029 30.39 858 25.34 -3.4 25.9 69 -8.3 17
10:00 1029 30.39 858 25.34 -3.5 25.6 68 -8.6 16.5
10:05 1029 30.39 858 25.34 -3.4 25.8 68 -8.6 16.5
10:10 1029 30.39 858 25.34 -3.2 26.3 66 -8.6 16.4
10:15 1029 30.39 858 25.34 -3.1 26.3 67 -8.4 16.8
10:20 1029 30.39 858 25.34 -3 26.5 66 -8.5 16.7
10:25 1029 30.39 858 25.34 -2.8 26.9 65 -8.5 16.7
10:30 1029 30.39 858 25.34 -2.7 27.2 65 -8.3 17.1
10:35 1029 30.39 859 25.37 -2.4 27.7 62 -8.6 16.5
10:40 1029 30.39 859 25.37 -2.1 28.2 62 -8.5 16.7
10:45 1030 30.42 859 25.37 -2.1 28.2 64 -8.1 17.5
10:50 1030 30.42 859 25.37 -2.1 28.2 63 -8.3 17
10:55 1029 30.39 859 25.37 -2 28.3 62 -8.4 16.8
11:00 1029 30.39 859 25.37 -1.5 29.3 56 -9.2 15.5
11:05 1029 30.39 859 25.37 -1.1 30 58 -8.3 17
11:10 1029 30.39 858 25.34 -1.6 29.1 57 -9.1 15.7
11:15 1029 30.39 858 25.34 -1.4 29.5 60 -8.3 17.1
11:20 1029 30.39 858 25.34 -1.4 29.5 60 -8.3 17.1
11:25 1029 30.39 858 25.34 -1.1 30 57 -8.5 16.6
11:30 1029 30.39 859 25.37 -0.6 30.9 54 -8.8 16.2
11:35 1029 30.39 859 25.37 -0.2 31.6 54 -8.6 16.6
11:40 1029 30.39 858 25.34 0 32 51 -8.9 16
11:45 1029 30.39 858 25.34 0.5 32.9 47 -9.4 15
11:50 1029 30.39 858 25.34 0.8 33.4 46 -9.6 14.7
11:55 1029 30.39 858 25.34 0.9 33.7 46 -9.3 15.2
12:00 1029 30.39 858 25.34 1.4 34.6 45 -9.3 15.3
12:05 1029 30.39 859 25.37 1.9 35.5 43 -9.4 15.1
12:10 1029 30.39 859 25.37 2.3 36.1 42 -9.2 15.4
12:15 1029 30.39 859 25.37 2.9 37.2 42 -8.8 16.2
12:20 1029 30.39 858 25.34 3 37.4 44 -8 17.7
12:25 1029 30.39 858 25.34 2.8 37 47 -7.5 18.5
12:30 1029 30.39 858 25.34 2.2 36 47 -8 17.6
12:35 1029 30.39 858 25.34 2 35.6 47 -8.1 17.5
12:40 1029 30.39 858 25.34 1.7 35 47 -8.3 17
12:45 1029 30.39 858 25.34 2.6 36.6 44 -8.5 16.7
12:50 1029 30.39 858 25.34 2.8 37 43 -8.6 16.5
12:55 1029 30.39 858 25.34 3 37.3 42 -8.9 16
13:00 1029 30.39 858 25.34 3.2 37.7 43 -8.3 17
13:05 1029 30.39 858 25.34 3.1 37.6 42 -8.6 16.5
13:10 1029 30.39 858 25.34 3.1 37.7 43 -8.3 17.1
13:15 1029 30.39 858 25.34 3.5 38.3 39 -9.2 15.5
13:20 1029 30.39 858 25.34 3.7 38.6 39 -9 15.7
13:25 1029 30.39 858 25.34 4.2 39.6 38 -8.9 15.9
13:30 1029 30.39 858 25.34 3.9 39.1 40 -8.5 16.7
13:35 1029 30.39 858 25.34 3.7 38.7 38 -9.3 15.3
13:40 1029 30.39 858 25.34 3.6 38.5 39 -9.1 15.7
13:45 1029 30.39 858 25.34 3.7 38.7 40 -8.6 16.6
13:50 1029 30.39 858 25.34 4 39.3 42 -7.7 18.2
13:55 1029 30.39 858 25.34 3.9 39 40 -8.4 16.9
14:00 1029 30.39 858 25.34 4.1 39.4 41 -8 17.6
14:05 1029 30.39 858 25.34 4.1 39.3 42 -7.7 18.1
14:10 1029 30.39 858 25.34 4 39.2 41 -8 17.6
14:15 1029 30.39 858 25.34 3.7 38.7 43 -7.7 18.2
14:20 1029 30.39 858 25.34 4 39.2 45 -6.7 19.9
14:25 1029 30.39 858 25.34 4.9 40.8 42 -7 19.3
14:30 1028 30.36 858 25.34 5.1 41.2 42 -6.8 19.8
14:35 1028 30.36 858 25.34 5.2 41.4 41 -7.1 19.3
14:40 1028 30.36 858 25.34 5 40.9 44 -6.3 20.7
14:45 1028 30.36 858 25.34 4.2 39.5 44 -6.9 19.5
14:50 1028 30.36 857 25.31 3.7 38.6 44 -7.4 18.6
14:55 1028 30.36 857 25.31 4.2 39.5 41 -7.9 17.8
15:00 1028 30.36 857 25.31 4.6 40.2 42 -7.3 18.9
15:05 1028 30.36 857 25.31 4.1 39.4 44 -7 19.5
15:10 1028 30.36 857 25.31 4 39.2 44 -7.2 19.1
15:15 1028 30.36 857 25.31 3.9 39 43 -7.6 18.3
15:20 1028 30.36 857 25.31 4.9 40.9 38 -8.2 17.2
15:25 1028 30.36 857 25.31 5.4 41.7 39 -7.6 18.4
15:30 1028 30.36 857 25.31 4.9 40.9 37 -8.4 16.8
15:35 1028 30.36 857 25.31 4.6 40.4 35 -9.4 15.1
15:40 1028 30.36 857 25.31 4.4 40 38 -8.6 16.5
15:45 1028 30.36 857 25.31 5 41 36 -8.8 16.2
15:50 1028 30.36 857 25.31 5.4 41.7 34 -9.1 15.6
15:55 1027 30.33 857 25.31 4.9 40.9 37 -8.5 16.7
16:00 1027 30.33 857 25.31 3.9 39 40 -8.4 16.9
16:05 1027 30.33 856 25.28 3.6 38.5 41 -8.6 16.6
16:10 1027 30.33 856 25.28 3.7 38.7 42 -7.9 17.8
16:15 1027 30.33 856 25.28 3.9 38.9 41 -8.3 17
16:20 1027 30.33 856 25.28 4.8 40.6 37 -8.6 16.6
16:25 1027 30.33 856 25.28 5.4 41.7 38 -7.8 17.9
16:30 1027 30.33 856 25.28 5.9 42.7 37 -7.8 18
16:35 1027 30.33 856 25.28 6.3 43.3 35 -8 17.6
16:40 1027 30.33 856 25.28 6.5 43.7 33 -8.6 16.5
16:45 1027 30.33 856 25.28 6.9 44.5 33 -8.3 17
16:50 1027 30.33 856 25.28 7.2 44.9 33 -8.2 17.2
16:55 1027 30.33 856 25.28 7.2 44.9 32 -8.2 17.2
17:00 1027 30.33 856 25.28 7.3 45.2 31 -8.5 16.7
17:05 1027 30.33 856 25.28 7.4 45.3 31 -8.8 16.2
17:10 1027 30.33 856 25.28 7.4 45.4 30 -8.9 15.9
17:15 1027 30.33 856 25.28 7.5 45.6 31 -8.7 16.3
17:20 1027 30.33 856 25.28 7.2 45 32 -8.6 16.5
17:25 1027 30.33 856 25.28 7.5 45.5 31 -8.4 16.9
17:30 1027 30.33 856 25.28 7.7 45.9 32 -8.1 17.4
17:35 1027 30.33 856 25.28 7.4 45.4 32 -8.3 17.1
17:40 1027 30.33 856 25.28 7.3 45.1 34 -7.7 18.2
17:45 1027 30.33 856 25.28 6.8 44.3 35 -7.4 18.7
17:50 1027 30.33 856 25.28 6.5 43.7 35 -7.8 18
17:55 1027 30.33 856 25.28 6 42.8 36 -7.9 17.8
18:00 1027 30.33 856 25.28 5.9 42.7 37 -7.5 18.4
18:05 1027 30.33 856 25.28 6 42.8 38 -7.3 18.8
18:10 1026 30.3 856 25.28 5.7 42.2 41 -6.7 19.9
18:15 1026 30.3 856 25.28 4.8 40.6 44 -6.6 20.1
18:20 1026 30.3 856 25.28 4.4 39.8 43 -7.2 19.1
18:25 1026 30.3 856 25.28 4.1 39.3 43 -7.4 18.7
18:30 1026 30.3 855 25.25 3.9 39 44 -7.4 18.7
18:35 1026 30.3 855 25.25 3.9 38.9 45 -7.1 19.2
18:40 1026 30.3 855 25.25 3.9 39.1 45 -6.8 19.7
18:45 1026 30.3 855 25.25 3.9 39 44 -7.4 18.7
18:50 1026 30.3 855 25.25 3.3 38 46 -7.2 19.1
18:55 1026 30.3 855 25.25 2.6 36.7 49 -6.9 19.6
19:00 1026 30.3 855 25.25 2.3 36.1 50 -7.2 19.1
19:05 1026 30.3 855 25.25 2.2 36 50 -7.2 19
19:10 1026 30.3 855 25.25 2.3 36.1 50 -7.1 19.2
19:15 1026 30.3 855 25.25 2.2 36 51 -6.9 19.6
19:20 1026 30.3 855 25.25 2.2 36 53 -6.3 20.6
19:25 1026 30.3 855 25.25 2.1 35.8 57 -5.6 22
19:30 1026 30.3 855 25.25 2.2 35.9 60 -4.9 23.2
19:35 1026 30.3 855 25.25 2.2 36 57 -5.4 22.4
19:40 1026 30.3 855 25.25 2.1 35.8 58 -5.2 22.6
19:45 1026 30.3 855 25.25 2 35.5 60 -5 22.9
19:50 1026 30.3 855 25.25 1.9 35.5 59 -5.2 22.7
19:55 1026 30.3 855 25.25 1.9 35.3 58 -5.5 22.1
20:00 1026 30.3 855 25.25 2.2 36 57 -5.4 22.3
20:05 1026 30.3 856 25.28 2.2 36 58 -5.1 22.7
20:10 1026 30.3 856 25.28 1.4 34.6 59 -5.8 21.5
20:15 1026 30.3 856 25.28 0.9 33.7 61 -5.8 21.5
20:20 1026 30.3 856 25.28 0.7 33.2 62 -5.9 21.4
20:25 1026 30.3 856 25.28 0.7 33.3 61 -5.9 21.5
20:30 1027 30.33 856 25.28 0.7 33.3 61 -6 21.3
20:35 1027 30.33 856 25.28 0.7 33.3 62 -5.8 21.5
20:40 1027 30.33 856 25.28 0.8 33.4 61 -5.9 21.4
20:45 1027 30.33 856 25.28 0.9 33.7 60 -6 21.3
20:50 1027 30.33 856 25.28 0.9 33.6 59 -6.3 20.6
20:55 1027 30.33 856 25.28 0.8 33.4 60 -6 21.2
21:00 1027 30.33 856 25.28 0.7 33.3 62 -5.8 21.6
21:05 1027 30.33 856 25.28 0.4 32.7 63 -5.9 21.4
21:10 1027 30.33 856 25.28 0.2 32.3 64 -5.8 21.5
21:15 1027 30.33 856 25.28 0.1 32.3 64 -5.9 21.3
21:20 1027 30.33 856 25.28 0.2 32.4 62 -6.2 20.9
21:25 1027 30.33 856 25.28 0.1 32.2 61 -6.4 20.4
21:30 1027 30.33 856 25.28 -0 32 63 -6.3 20.7
21:35 1027 30.33 856 25.28 -0.3 31.4 64 -6.2 20.8
21:40 1027 30.33 856 25.28 -0.8 30.5 67 -6.2 20.8
21:45 1027 30.33 856 25.28 -1.1 30 68 -6.3 20.7
21:50 1027 30.33 856 25.28 -1.3 29.7 68 -6.4 20.5
21:55 1027 30.33 856 25.28 -1.5 29.3 69 -6.5 20.3
22:00 1027 30.33 856 25.28 -1.6 29.2 68 -6.7 20
22:05 1027 30.33 856 25.28 -1.2 29.9 66 -6.7 20
22:10 1027 30.33 856 25.28 -0.9 30.4 66 -6.5 20.3
22:15 1027 30.33 856 25.28 -0.9 30.4 65 -6.6 20.2
22:20 1027 30.33 856 25.28 -0.8 30.5 66 -6.5 20.3
22:25 1027 30.33 856 25.28 -0.7 30.7 64 -6.7 20
22:30 1027 30.33 856 25.28 -0.5 31 65 -6.3 20.7
22:35 1027 30.33 856 25.28 -0.8 30.5 67 -6.2 20.8
22:40 1027 30.33 856 25.28 -1 30.2 66 -6.5 20.3
22:45 1027 30.33 856 25.28 -0.9 30.4 61 -7.4 18.7
22:50 1027 30.33 856 25.28 -0.2 31.7 63 -6.4 20.6
22:55 1027 30.33 856 25.28 -0.8 30.6 66 -6.3 20.6
23:00 1027 30.33 856 25.28 -1.3 29.6 70 -6.2 20.9
23:05 1027 30.33 856 25.28 -1.5 29.2 70 -6.2 20.8
23:10 1027 30.33 857 25.31 -1.3 29.7 70 -6.2 20.9
23:15 1027 30.33 857 25.31 -1.3 29.7 70 -6.1 21.1
23:20 1027 30.33 857 25.31 -0.8 30.6 66 -6.4 20.6
23:25 1027 30.33 857 25.31 -0.2 31.7 62 -6.7 20
23:30 1027 30.33 857 25.31 0.1 32.1 61 -6.6 20.1
23:35 1027 30.33 857 25.31 0.2 32.4 60 -6.5 20.2
23:40 1027 30.33 857 25.31 0.7 33.3 54 -7.6 18.3
23:45 1027 30.33 857 25.31 1.1 34 57 -6.5 20.3
23:50 1027 30.33 857 25.31 0.4 32.7 60 -6.4 20.4
23:55 1027 30.33 857 25.31 -0 31.9 59 -7.2 19.1
24:00 1028 30.36 857 25.31 0.7 33.2 57 -6.8 19.8